Time;durP1;ratioP1;P1;durP2;ratioP2;P2;SDS_P1;SDS_P2;PMS_P1;PMS_P2;Temp;Humidity;BMP_temperature;BMP_pressure;BME280_temperature;BME280_humidity;BME280_pressure;Samples;Min_cycle;Max_cycle;Signal;HPM_P1;HPM_P2
2023/09/27 00:02:16;;;;;;;;;6.75;6.75;;;;;;;;5068944;28;8819;-81
2023/09/27 00:04:43;;;;;;;;;9.00;9.00;;;;;;;;5069358;28;8858;-81
2023/09/27 00:07:12;;;;;;;;;7.25;7.00;;;;;;;;5067892;28;8867;-82
2023/09/27 00:09:39;;;;;;;;;8.00;6.25;;;;;;;;5068911;28;8859;-84
2023/09/27 00:12:06;;;;;;;;;9.25;8.00;;;;;;;;5067803;28;8855;-84
2023/09/27 00:14:34;;;;;;;;;7.75;7.75;;;;;;;;5068011;28;8855;-81
2023/09/27 00:17:02;;;;;;;;;7.00;6.00;;;;;;;;5067303;28;9014;-83
2023/09/27 00:19:31;;;;;;;;;9.25;8.50;;;;;;;;5067833;28;9003;-85
2023/09/27 00:21:58;;;;;;;;;6.25;6.25;;;;;;;;5067904;28;8913;-82
2023/09/27 00:24:27;;;;;;;;;7.00;7.00;;;;;;;;5068609;28;8839;-83
2023/09/27 00:26:54;;;;;;;;;9.25;9.25;;;;;;;;5069613;28;8958;-81
2023/09/27 00:29:21;;;;;;;;;9.00;7.00;;;;;;;;5071844;28;8912;-79
2023/09/27 00:31:48;;;;;;;;;7.50;7.50;;;;;;;;5061587;28;8928;-83
2023/09/27 00:34:16;;;;;;;;;9.50;7.00;;;;;;;;5064192;28;8875;-82
2023/09/27 00:36:43;;;;;;;;;7.00;7.00;;;;;;;;5071156;28;8862;-80
2023/09/27 00:39:13;;;;;;;;;7.00;7.00;;;;;;;;5071411;28;8851;-84
2023/09/27 00:41:44;;;;;;;;;6.50;6.50;;;;;;;;5072081;28;8866;-83
2023/09/27 00:44:11;;;;;;;;;9.00;9.00;;;;;;;;5070995;28;8867;-81
2023/09/27 00:46:39;;;;;;;;;8.75;8.50;;;;;;;;5072272;28;8866;-81
2023/09/27 00:49:08;;;;;;;;;7.75;7.75;;;;;;;;5071473;28;8870;-82
2023/09/27 00:51:36;;;;;;;;;8.25;8.25;;;;;;;;5070810;28;8951;-81
2023/09/27 00:54:07;;;;;;;;;7.00;7.00;;;;;;;;5071346;28;8939;-82
2023/09/27 00:56:35;;;;;;;;;7.25;7.25;;;;;;;;5071458;28;8851;-86
2023/09/27 00:59:05;;;;;;;;;9.00;9.00;;;;;;;;5075081;28;8893;-82
2023/09/27 01:01:35;;;;;;;;;4.00;4.00;;;;;;;;5079107;28;8827;-80
2023/09/27 01:04:03;;;;;;;;;11.00;9.50;;;;;;;;5072601;28;8890;-80
2023/09/27 01:06:30;;;;;;;;;7.25;7.25;;;;;;;;5072117;28;8950;-81
2023/09/27 01:08:58;;;;;;;;;9.75;6.25;;;;;;;;5070890;28;8847;-81
2023/09/27 01:11:25;;;;;;;;;9.00;9.00;;;;;;;;5071356;28;8925;-81
2023/09/27 01:13:52;;;;;;;;;7.25;7.25;;;;;;;;5071586;28;8932;-80
2023/09/27 01:16:21;;;;;;;;;7.00;7.00;;;;;;;;5071196;28;8862;-81
2023/09/27 01:18:48;;;;;;;;;3.00;3.00;;;;;;;;5071197;28;8873;-81
2023/09/27 01:21:19;;;;;;;;;7.75;7.75;;;;;;;;5071606;28;8863;-83
2023/09/27 01:23:50;;;;;;;;;6.50;6.50;;;;;;;;5071564;28;8869;-82
2023/09/27 01:26:18;;;;;;;;;7.50;7.00;;;;;;;;5083823;28;8843;-82
2023/09/27 01:28:47;;;;;;;;;7.25;7.25;;;;;;;;5071811;28;8859;-81
2023/09/27 01:31:14;;;;;;;;;9.00;8.00;;;;;;;;5073537;28;8788;-81
2023/09/27 01:33:42;;;;;;;;;8.25;8.25;;;;;;;;5076265;28;8869;-81
2023/09/27 01:36:11;;;;;;;;;8.50;8.50;;;;;;;;5077413;28;8910;-82
2023/09/27 01:38:39;;;;;;;;;7.25;7.00;;;;;;;;5076622;28;8856;-84
2023/09/27 01:41:07;;;;;;;;;7.00;7.00;;;;;;;;5076203;28;8946;-81
2023/09/27 01:43:35;;;;;;;;;6.50;6.25;;;;;;;;5075102;28;8835;-83
2023/09/27 01:46:02;;;;;;;;;5.75;5.75;;;;;;;;5072240;28;8843;-82
2023/09/27 01:48:29;;;;;;;;;8.50;8.50;;;;;;;;5070429;28;8874;-82
2023/09/27 01:50:57;;;;;;;;;9.50;9.00;;;;;;;;5070519;28;8851;-81
2023/09/27 01:53:24;;;;;;;;;12.50;8.00;;;;;;;;5070414;28;8859;-83
2023/09/27 01:55:51;;;;;;;;;7.75;7.75;;;;;;;;5070371;28;8859;-81
2023/09/27 01:58:20;;;;;;;;;12.50;10.75;;;;;;;;5069984;28;8858;-82
2023/09/27 02:00:47;;;;;;;;;8.00;8.00;;;;;;;;5070036;28;8846;-81
2023/09/27 02:03:14;;;;;;;;;9.00;7.50;;;;;;;;5070020;28;8863;-82
2023/09/27 02:05:44;;;;;;;;;9.00;9.00;;;;;;;;5069599;28;8890;-80
2023/09/27 02:08:12;;;;;;;;;9.50;8.50;;;;;;;;5071010;28;8844;-80
2023/09/27 02:10:40;;;;;;;;;12.25;11.25;;;;;;;;5070998;28;8862;-82
2023/09/27 02:13:07;;;;;;;;;8.50;8.00;;;;;;;;5071297;28;8862;-80
2023/09/27 02:15:35;;;;;;;;;7.75;7.00;;;;;;;;5073367;28;8851;-83
2023/09/27 02:18:03;;;;;;;;;8.75;8.75;;;;;;;;5072777;28;8917;-80
2023/09/27 02:20:30;;;;;;;;;10.50;10.50;;;;;;;;5070850;28;8847;-81
2023/09/27 02:22:58;;;;;;;;;9.75;9.75;;;;;;;;5057780;28;8854;-81
2023/09/27 02:25:25;;;;;;;;;8.00;8.00;;;;;;;;5069833;28;8847;-81
2023/09/27 02:27:52;;;;;;;;;9.00;9.00;;;;;;;;5069949;28;8883;-81
2023/09/27 02:30:20;;;;;;;;;8.00;8.00;;;;;;;;5068728;28;8985;-83
2023/09/27 02:32:48;;;;;;;;;8.75;8.75;;;;;;;;5069476;28;8882;-81
2023/09/27 02:35:18;;;;;;;;;9.00;9.00;;;;;;;;5069227;28;8859;-80
2023/09/27 02:37:45;;;;;;;;;10.75;10.00;;;;;;;;5069897;28;8855;-80
2023/09/27 02:40:14;;;;;;;;;8.00;8.00;;;;;;;;5069747;28;8973;-81
2023/09/27 02:42:46;;;;;;;;;8.25;7.50;;;;;;;;5070345;28;8846;-80
2023/09/27 02:45:14;;;;;;;;;7.25;7.25;;;;;;;;5068889;28;8951;-80
2023/09/27 02:47:45;;;;;;;;;12.75;10.25;;;;;;;;5069980;28;8852;-80
2023/09/27 02:50:14;;;;;;;;;9.25;8.00;;;;;;;;5069558;28;8850;-81
2023/09/27 02:52:43;;;;;;;;;7.50;7.50;;;;;;;;5069922;28;8889;-81
2023/09/27 02:55:11;;;;;;;;;10.00;10.00;;;;;;;;5069261;28;8843;-81
2023/09/27 02:57:39;;;;;;;;;9.00;9.00;;;;;;;;5069683;28;8877;-81
2023/09/27 03:00:08;;;;;;;;;10.50;10.50;;;;;;;;5067854;28;8941;-82
2023/09/27 03:02:37;;;;;;;;;10.50;10.00;;;;;;;;5069304;28;8855;-81
2023/09/27 03:05:07;;;;;;;;;9.00;9.00;;;;;;;;5069063;28;9010;-81
2023/09/27 03:07:38;;;;;;;;;9.75;9.75;;;;;;;;5069226;28;9002;-82
2023/09/27 03:10:08;;;;;;;;;7.75;7.75;;;;;;;;5069992;28;8871;-81
2023/09/27 03:12:35;;;;;;;;;10.25;10.25;;;;;;;;5069325;28;8866;-81
2023/09/27 03:15:05;;;;;;;;;7.00;7.00;;;;;;;;5071484;28;8869;-81
2023/09/27 03:17:32;;;;;;;;;11.75;11.75;;;;;;;;5073597;28;8858;-81
2023/09/27 03:19:59;;;;;;;;;10.00;10.00;;;;;;;;5074742;28;8858;-81
2023/09/27 03:22:26;;;;;;;;;12.00;10.00;;;;;;;;5075199;28;8943;-81
2023/09/27 03:24:55;;;;;;;;;10.50;9.25;;;;;;;;5075529;28;8864;-81
2023/09/27 03:27:22;;;;;;;;;3.25;3.25;;;;;;;;5075998;28;8862;-82
2023/09/27 03:29:50;;;;;;;;;13.50;11.75;;;;;;;;5075161;28;8839;-82
2023/09/27 03:32:19;;;;;;;;;14.50;10.00;;;;;;;;5068436;28;8815;-82
2023/09/27 03:34:46;;;;;;;;;10.00;9.75;;;;;;;;5069185;28;8993;-81
2023/09/27 03:37:14;;;;;;;;;10.25;10.25;;;;;;;;5068197;28;8867;-81
2023/09/27 03:39:42;;;;;;;;;9.25;9.25;;;;;;;;5069014;28;8865;-80
2023/09/27 03:42:11;;;;;;;;;9.00;9.00;;;;;;;;5068805;28;8965;-83
2023/09/27 03:44:38;;;;;;;;;8.50;8.50;;;;;;;;5068623;28;8858;-80
2023/09/27 03:47:05;;;;;;;;;9.50;9.50;;;;;;;;5066448;28;8887;-81
2023/09/27 03:49:36;;;;;;;;;9.25;9.25;;;;;;;;5068251;28;9602;-81
2023/09/27 03:52:03;;;;;;;;;11.50;9.25;;;;;;;;5067660;28;9524;-80
2023/09/27 03:54:32;;;;;;;;;10.50;7.00;;;;;;;;5067969;28;8839;-87
2023/09/27 03:56:59;;;;;;;;;11.75;11.00;;;;;;;;5068367;28;8877;-80
2023/09/27 03:59:28;;;;;;;;;8.00;8.00;;;;;;;;5069332;28;8855;-82
2023/09/27 04:01:56;;;;;;;;;13.50;11.00;;;;;;;;5072541;28;8794;-84
2023/09/27 04:04:25;;;;;;;;;9.00;9.00;;;;;;;;5065572;28;8932;-81
2023/09/27 04:06:52;;;;;;;;;8.25;8.25;;;;;;;;5056732;28;8847;-83
2023/09/27 04:09:19;;;;;;;;;8.50;8.50;;;;;;;;5067406;28;8951;-82
2023/09/27 04:11:47;;;;;;;;;9.25;8.50;;;;;;;;5068390;28;8846;-80
2023/09/27 04:14:14;;;;;;;;;9.50;9.25;;;;;;;;5056063;28;8892;-84
2023/09/27 04:16:43;;;;;;;;;9.75;9.75;;;;;;;;5068088;28;8878;-82
2023/09/27 04:19:10;;;;;;;;;10.00;10.00;;;;;;;;5066598;28;9010;-84
2023/09/27 04:21:37;;;;;;;;;9.00;9.00;;;;;;;;5067536;28;8879;-80
2023/09/27 04:24:06;;;;;;;;;9.00;9.00;;;;;;;;5066960;28;9676;-81
2023/09/27 04:26:34;;;;;;;;;9.25;9.25;;;;;;;;5067535;28;8865;-80
2023/09/27 04:29:01;;;;;;;;;9.75;8.75;;;;;;;;5067195;28;8916;-81
2023/09/27 04:31:28;;;;;;;;;10.00;10.00;;;;;;;;5066347;28;8883;-79
2023/09/27 04:33:57;;;;;;;;;9.25;9.25;;;;;;;;5067337;28;8843;-82
2023/09/27 04:36:24;;;;;;;;;9.25;9.00;;;;;;;;5067820;28;8839;-81
2023/09/27 04:38:52;;;;;;;;;10.00;8.00;;;;;;;;5066303;28;8977;-80
2023/09/27 04:41:20;;;;;;;;;9.25;9.00;;;;;;;;5067509;28;8842;-80
2023/09/27 04:43:47;;;;;;;;;8.75;8.50;;;;;;;;5067192;28;8839;-79
2023/09/27 04:46:17;;;;;;;;;8.75;8.50;;;;;;;;5068250;28;8928;-80
2023/09/27 04:48:45;;;;;;;;;10.75;10.75;;;;;;;;5081031;28;8842;-81
2023/09/27 04:51:16;;;;;;;;;6.25;6.25;;;;;;;;5068527;28;8990;-86
2023/09/27 04:53:43;;;;;;;;;8.75;7.75;;;;;;;;5070110;28;8863;-82
2023/09/27 04:56:11;;;;;;;;;8.75;8.50;;;;;;;;5072584;28;8855;-81
2023/09/27 04:58:40;;;;;;;;;11.25;11.25;;;;;;;;5069113;28;8935;-81
2023/09/27 05:01:09;;;;;;;;;10.50;10.00;;;;;;;;5081792;28;8793;-81
2023/09/27 05:03:36;;;;;;;;;11.50;10.25;;;;;;;;5073016;28;8886;-82
2023/09/27 05:06:03;;;;;;;;;9.75;9.75;;;;;;;;5072590;28;8858;-81
2023/09/27 05:08:32;;;;;;;;;9.25;8.50;;;;;;;;5072564;28;8847;-81
2023/09/27 05:10:59;;;;;;;;;10.75;10.75;;;;;;;;5071228;28;8916;-71
2023/09/27 05:13:26;;;;;;;;;8.75;8.75;;;;;;;;5070431;28;8884;-71
2023/09/27 05:15:53;;;;;;;;;13.00;11.00;;;;;;;;5066350;28;8877;-80
2023/09/27 05:18:22;;;;;;;;;10.50;10.00;;;;;;;;5073485;28;8928;-75
2023/09/27 05:20:52;;;;;;;;;9.75;9.75;;;;;;;;5071276;28;8868;-83
2023/09/27 05:23:19;;;;;;;;;8.75;8.75;;;;;;;;5071298;28;8851;-85
2023/09/27 05:25:48;;;;;;;;;14.25;11.75;;;;;;;;5069876;28;8860;-81
2023/09/27 05:28:18;;;;;;;;;10.00;10.00;;;;;;;;5071548;28;8847;-86
2023/09/27 05:30:46;;;;;;;;;12.00;9.50;;;;;;;;5070444;28;8796;-83
2023/09/27 05:33:13;;;;;;;;;12.50;11.00;;;;;;;;5070021;28;8873;-92
2023/09/27 05:35:41;;;;;;;;;10.50;10.50;;;;;;;;5070118;28;8869;-73
2023/09/27 05:38:09;;;;;;;;;12.25;12.25;;;;;;;;5070367;28;8847;-80
2023/09/27 05:40:36;;;;;;;;;11.75;11.25;;;;;;;;5070763;28;8827;-86
2023/09/27 05:43:05;;;;;;;;;11.50;10.75;;;;;;;;5071072;28;8854;-74
2023/09/27 05:45:35;;;;;;;;;10.25;10.25;;;;;;;;5074016;28;8854;-84
2023/09/27 05:48:05;;;;;;;;;9.00;9.00;;;;;;;;5074174;28;8882;-71
2023/09/27 05:50:35;;;;;;;;;9.50;9.50;;;;;;;;5074382;28;8862;-89
2023/09/27 05:53:05;;;;;;;;;10.25;10.25;;;;;;;;5069929;28;8851;-71
2023/09/27 05:55:32;;;;;;;;;10.25;10.25;;;;;;;;5070238;28;8977;-78
2023/09/27 05:57:59;;;;;;;;;11.00;11.00;;;;;;;;5069827;28;8899;-90
2023/09/27 06:00:32;;;;;;;;;10.00;9.00;;;;;;;;5070143;28;8781;-83
2023/09/27 06:02:59;;;;;;;;;12.00;11.25;;;;;;;;5069446;28;8989;-85
2023/09/27 06:05:29;;;;;;;;;9.75;9.75;;;;;;;;5069654;28;8869;-89
2023/09/27 06:07:56;;;;;;;;;12.33;12.00;;;;;;;;5069629;28;8839;-79
2023/09/27 06:10:23;;;;;;;;;10.00;10.00;;;;;;;;5069502;28;8977;-74
2023/09/27 06:12:51;;;;;;;;;10.25;10.25;;;;;;;;5069240;28;8969;-71
2023/09/27 06:15:21;;;;;;;;;11.75;11.50;;;;;;;;5070576;28;8871;-70
2023/09/27 06:17:52;;;;;;;;;13.25;12.75;;;;;;;;5070238;28;8859;-70
2023/09/27 06:20:22;;;;;;;;;13.33;13.33;;;;;;;;5070995;28;8870;-72
2023/09/27 06:22:57;;;;;;;;;16.67;16.67;;;;;;;;5070199;28;8928;-71
2023/09/27 06:25:29;;;;;;;;;15.33;14.00;;;;;;;;5069665;28;8934;-73
2023/09/27 06:28:00;;;;;;;;;18.00;18.00;;;;;;;;5057401;28;9123;-71
2023/09/27 06:30:30;;;;;;;;;18.33;18.33;;;;;;;;5068303;28;9068;-72
2023/09/27 06:32:59;;;;;;;;;14.50;13.50;;;;;;;;5068889;28;8957;-71
2023/09/27 06:35:27;;;;;;;;;14.33;14.33;;;;;;;;5068789;28;8893;-73
2023/09/27 06:38:00;;;;;;;;;17.75;15.75;;;;;;;;5069046;28;9019;-73
2023/09/27 06:40:29;;;;;;;;;16.67;15.33;;;;;;;;5068891;28;8870;-74
2023/09/27 06:42:56;;;;;;;;;19.25;17.50;;;;;;;;5068742;28;8937;-72
2023/09/27 06:45:25;;;;;;;;;16.50;14.50;;;;;;;;5070584;28;8868;-69
2023/09/27 06:47:52;;;;;;;;;15.75;15.00;;;;;;;;5071926;28;8858;-71
2023/09/27 06:50:23;;;;;;;;;14.00;14.00;;;;;;;;5072011;28;8866;-72
2023/09/27 06:52:50;;;;;;;;;18.25;16.50;;;;;;;;5072428;28;8880;-70
2023/09/27 06:55:24;;;;;;;;;16.75;16.50;;;;;;;;5071638;28;8860;-83
2023/09/27 06:57:52;;;;;;;;;16.00;16.00;;;;;;;;5068898;28;8842;-85
2023/09/27 07:00:24;;;;;;;;;15.25;14.75;;;;;;;;5057255;28;8857;-88
2023/09/27 07:02:52;;;;;;;;;14.25;14.25;;;;;;;;5068288;28;8839;-78
2023/09/27 07:05:21;;;;;;;;;13.75;13.75;;;;;;;;5068949;28;8866;-87
2023/09/27 07:07:50;;;;;;;;;17.00;15.00;;;;;;;;5068314;28;8866;-78
2023/09/27 07:10:17;;;;;;;;;16.50;16.00;;;;;;;;5068876;28;8855;-79
2023/09/27 07:12:44;;;;;;;;;13.50;13.50;;;;;;;;5068721;28;8847;-79
2023/09/27 07:15:13;;;;;;;;;14.50;13.00;;;;;;;;5071063;28;8851;-89
2023/09/27 07:17:41;;;;;;;;;13.00;13.00;;;;;;;;5069614;28;8879;-73
2023/09/27 07:20:20;;;;;;;;;18.75;15.50;;;;;;;;5069750;28;8863;-86
2023/09/27 07:22:49;;;;;;;;;15.25;14.50;;;;;;;;5068959;28;8862;-71
2023/09/27 07:25:19;;;;;;;;;15.00;15.00;;;;;;;;5070097;28;8855;-88
2023/09/27 07:27:50;;;;;;;;;20.75;20.75;;;;;;;;5069627;28;8854;-88
2023/09/27 07:30:20;;;;;;;;;33.00;30.00;;;;;;;;5068127;28;8843;-76
2023/09/27 07:32:50;;;;;;;;;22.75;21.25;;;;;;;;5068377;28;8870;-78
2023/09/27 07:35:18;;;;;;;;;26.00;24.50;;;;;;;;5066214;28;8940;-89
2023/09/27 07:37:45;;;;;;;;;23.25;22.25;;;;;;;;5068732;28;8854;-91
2023/09/27 07:40:15;;;;;;;;;24.75;24.75;;;;;;;;5067063;28;8847;-78
2023/09/27 07:42:44;;;;;;;;;23.25;21.50;;;;;;;;5068170;28;8961;-73
2023/09/27 07:45:20;;;;;;;;;18.25;18.25;;;;;;;;5068057;28;8965;-85
2023/09/27 07:47:51;;;;;;;;;17.75;17.75;;;;;;;;5069622;28;8863;-82
2023/09/27 07:50:19;;;;;;;;;23.50;20.75;;;;;;;;5069517;28;8864;-79
2023/09/27 07:52:47;;;;;;;;;21.75;21.25;;;;;;;;5069118;28;8846;-83
2023/09/27 07:55:17;;;;;;;;;16.75;16.75;;;;;;;;5067186;28;8863;-83
2023/09/27 07:57:45;;;;;;;;;19.00;19.00;;;;;;;;5067819;28;8851;-78
2023/09/27 08:00:18;;;;;;;;;17.50;17.50;;;;;;;;5067021;28;8854;-71
2023/09/27 08:02:46;;;;;;;;;17.75;17.75;;;;;;;;5067195;28;8850;-72
2023/09/27 08:05:16;;;;;;;;;18.50;18.50;;;;;;;;5067840;28;8881;-82
2023/09/27 08:07:44;;;;;;;;;16.00;16.00;;;;;;;;5067487;28;8877;-75
2023/09/27 08:10:11;;;;;;;;;15.50;15.50;;;;;;;;5067672;28;8881;-72
2023/09/27 08:12:40;;;;;;;;;17.50;16.25;;;;;;;;5067356;28;8851;-80
2023/09/27 08:15:08;;;;;;;;;19.00;15.50;;;;;;;;5067775;28;9715;-76
2023/09/27 08:17:36;;;;;;;;;16.25;16.25;;;;;;;;5067264;28;8870;-74
2023/09/27 08:20:09;;;;;;;;;16.75;14.75;;;;;;;;5067996;28;8851;-72
2023/09/27 08:22:39;;;;;;;;;13.00;13.00;;;;;;;;5069431;28;8931;-78
2023/09/27 08:25:09;;;;;;;;;16.25;14.50;;;;;;;;5069757;28;8855;-71
2023/09/27 08:27:36;;;;;;;;;15.25;13.00;;;;;;;;5070600;28;8843;-75
2023/09/27 08:30:07;;;;;;;;;19.00;19.00;;;;;;;;5071492;28;9623;-76
2023/09/27 08:32:35;;;;;;;;;17.00;17.00;;;;;;;;5071970;28;8851;-71
2023/09/27 08:35:04;;;;;;;;;17.25;17.25;;;;;;;;5072047;28;8862;-71
2023/09/27 08:37:32;;;;;;;;;19.00;19.00;;;;;;;;5072863;28;8867;-88
2023/09/27 08:39:59;;;;;;;;;14.25;13.50;;;;;;;;5067455;28;8873;-90
2023/09/27 08:42:27;;;;;;;;;16.00;16.00;;;;;;;;5067641;28;8827;-85
2023/09/27 08:44:55;;;;;;;;;11.50;10.25;;;;;;;;5067679;28;8847;-89
2023/09/27 08:47:24;;;;;;;;;15.75;15.75;;;;;;;;5070853;28;8928;-83
2023/09/27 08:49:51;;;;;;;;;17.00;17.00;;;;;;;;5069076;28;8858;-83
2023/09/27 08:52:18;;;;;;;;;15.80;14.00;;;;;;;;5075120;28;8820;-94
2023/09/27 08:54:46;;;;;;;;;13.20;13.20;;;;;;;;5081788;28;8871;-86
2023/09/27 08:57:13;;;;;;;;;14.00;14.00;;;;;;;;5079117;28;8953;-96
2023/09/27 08:59:41;;;;;;;;;13.00;13.00;;;;;;;;5076014;28;8854;-77
2023/09/27 09:02:10;;;;;;;;;0.00;0.00;;;;;;;;5087302;28;8916;-88
2023/09/27 09:04:39;;;;;;;;;12.60;12.60;;;;;;;;5080950;28;8958;-85
2023/09/27 09:07:07;;;;;;;;;11.60;11.60;;;;;;;;5079907;28;8845;-80
2023/09/27 09:09:35;;;;;;;;;11.00;9.60;;;;;;;;5091737;28;8856;-86
2023/09/27 09:12:08;;;;;;;;;14.60;14.60;;;;;;;;5077250;28;8893;-81
2023/09/27 09:14:42;;;;;;;;;12.00;12.00;;;;;;;;5072819;28;8854;-93
2023/09/27 09:17:10;;;;;;;;;13.80;12.00;;;;;;;;5075217;28;9288;-88
2023/09/27 09:19:41;;;;;;;;;13.80;13.80;;;;;;;;5072210;28;8940;-89
2023/09/27 09:22:11;;;;;;;;;11.20;11.20;;;;;;;;5071519;28;8859;-90
2023/09/27 09:24:42;;;;;;;;;10.40;10.40;;;;;;;;5061503;28;8846;-86
2023/09/27 09:27:10;;;;;;;;;12.40;12.40;;;;;;;;5077630;28;8866;-76
2023/09/27 09:29:47;;;;;;;;;10.00;10.00;;;;;;;;5076292;28;8860;-82
2023/09/27 09:32:17;;;;;;;;;11.00;9.20;;;;;;;;5073019;28;8823;-81
2023/09/27 09:34:48;;;;;;;;;7.20;7.20;;;;;;;;5071703;28;8933;-85
2023/09/27 09:37:23;;;;;;;;;9.00;9.00;;;;;;;;5073250;28;8859;-87
2023/09/27 09:39:54;;;;;;;;;7.60;7.60;;;;;;;;5071996;28;8852;-82
2023/09/27 09:42:32;;;;;;;;;7.20;7.20;;;;;;;;5070802;28;8874;-87
2023/09/27 09:45:05;;;;;;;;;10.40;10.40;;;;;;;;5070675;28;8865;-83
2023/09/27 09:47:35;;;;;;;;;8.60;8.20;;;;;;;;5070642;28;8986;-90
2023/09/27 09:50:06;;;;;;;;;10.80;9.20;;;;;;;;5069999;28;8889;-84
2023/09/27 09:52:39;;;;;;;;;5.60;3.80;;;;;;;;5071229;28;8885;-74
2023/09/27 09:55:08;;;;;;;;;6.60;6.00;;;;;;;;5070010;28;8847;-78
2023/09/27 09:57:37;;;;;;;;;6.20;6.20;;;;;;;;5072296;28;8847;-72
2023/09/27 10:00:12;;;;;;;;;6.80;6.80;;;;;;;;5072638;28;8850;-86
2023/09/27 10:02:49;;;;;;;;;3.80;3.80;;;;;;;;5070318;28;9605;-72
2023/09/27 10:05:19;;;;;;;;;8.80;8.20;;;;;;;;5060409;28;8842;-72
2023/09/27 10:07:47;;;;;;;;;7.20;6.60;;;;;;;;5072063;28;8885;-76
2023/09/27 10:10:14;;;;;;;;;7.00;5.20;;;;;;;;5073263;28;8852;-72
2023/09/27 10:12:42;;;;;;;;;8.60;7.20;;;;;;;;5073490;28;8884;-75
2023/09/27 10:15:10;;;;;;;;;7.00;7.00;;;;;;;;5074259;28;8862;-79
2023/09/27 10:17:37;;;;;;;;;7.00;7.00;;;;;;;;5073630;28;8867;-72
2023/09/27 10:20:12;;;;;;;;;5.80;5.80;;;;;;;;5073257;28;8851;-81
2023/09/27 10:22:42;;;;;;;;;6.00;6.00;;;;;;;;5070426;28;8843;-84
2023/09/27 10:25:31;;;;;;;;;4.80;4.80;;;;;;;;5070061;28;8872;-79
2023/09/27 10:28:08;;;;;;;;;7.00;5.80;;;;;;;;5060771;28;8854;-90
2023/09/27 10:31:07;;;;;;;;;5.60;5.60;;;;;;;;5071379;28;8922;-73
2023/09/27 10:33:34;;;;;;;;;6.20;6.20;;;;;;;;5071488;28;8863;-72
2023/09/27 10:36:29;;;;;;;;;5.40;5.40;;;;;;;;5071370;28;8949;-74
2023/09/27 10:39:08;;;;;;;;;4.20;3.20;;;;;;;;5071212;28;8838;-76
2023/09/27 10:41:46;;;;;;;;;8.60;6.60;;;;;;;;5071228;28;8863;-72
2023/09/27 10:44:15;;;;;;;;;5.60;4.40;;;;;;;;5059118;28;8858;-79
2023/09/27 10:46:42;;;;;;;;;6.00;5.80;;;;;;;;5068174;28;8953;-76
2023/09/27 10:49:09;;;;;;;;;7.20;4.40;;;;;;;;5068614;28;8866;-73
2023/09/27 10:51:37;;;;;;;;;5.00;5.00;;;;;;;;5068957;28;8865;-73
2023/09/27 10:54:08;;;;;;;;;3.60;3.60;;;;;;;;5068766;28;8877;-84
2023/09/27 10:56:36;;;;;;;;;3.80;3.80;;;;;;;;5068517;28;8838;-73
2023/09/27 10:59:04;;;;;;;;;4.00;4.00;;;;;;;;5069089;28;8851;-81
2023/09/27 11:01:33;;;;;;;;;4.00;4.00;;;;;;;;5068891;28;8799;-83
2023/09/27 11:04:02;;;;;;;;;4.00;4.00;;;;;;;;5071479;28;8957;-77
2023/09/27 11:06:30;;;;;;;;;4.00;4.00;;;;;;;;5069110;28;8877;-85
2023/09/27 11:09:06;;;;;;;;;4.60;4.60;;;;;;;;5068719;28;8936;-77
2023/09/27 11:11:35;;;;;;;;;5.80;3.60;;;;;;;;5068202;28;8895;-79
2023/09/27 11:14:02;;;;;;;;;4.60;4.60;;;;;;;;5067932;28;8843;-80
2023/09/27 11:16:31;;;;;;;;;4.80;4.80;;;;;;;;5068502;28;8855;-81
2023/09/27 11:18:58;;;;;;;;;6.00;4.60;;;;;;;;5068621;28;8940;-72
2023/09/27 11:21:26;;;;;;;;;3.00;3.00;;;;;;;;5068457;28;8859;-79
2023/09/27 11:23:58;;;;;;;;;5.80;5.80;;;;;;;;5067580;28;8949;-73
2023/09/27 11:26:26;;;;;;;;;3.00;3.00;;;;;;;;5068641;28;8888;-80
2023/09/27 11:28:59;;;;;;;;;5.00;5.00;;;;;;;;5067752;28;8851;-77
2023/09/27 11:31:29;;;;;;;;;4.00;4.00;;;;;;;;5067863;28;8926;-75
2023/09/27 11:34:12;;;;;;;;;5.20;5.20;;;;;;;;5067728;28;8857;-82
2023/09/27 11:36:43;;;;;;;;;5.00;5.00;;;;;;;;5067960;28;8878;-74
2023/09/27 11:39:10;;;;;;;;;5.20;3.60;;;;;;;;5068070;28;8850;-77
2023/09/27 11:41:37;;;;;;;;;3.00;3.00;;;;;;;;5067800;28;8863;-74
2023/09/27 11:44:23;;;;;;;;;4.00;4.00;;;;;;;;5055713;28;8876;-80
2023/09/27 11:46:51;;;;;;;;;7.40;5.80;;;;;;;;5067460;28;8859;-72
2023/09/27 11:49:19;;;;;;;;;3.00;3.00;;;;;;;;5069368;28;8878;-78
2023/09/27 11:51:47;;;;;;;;;4.40;4.40;;;;;;;;5070447;28;8871;-73
2023/09/27 11:54:15;;;;;;;;;4.40;4.40;;;;;;;;5069150;28;8859;-78
2023/09/27 11:56:43;;;;;;;;;6.40;4.00;;;;;;;;5069023;28;8897;-74
2023/09/27 11:59:11;;;;;;;;;5.00;5.00;;;;;;;;5069768;28;9017;-73
2023/09/27 12:01:40;;;;;;;;;4.60;4.60;;;;;;;;5069495;28;8818;-71
2023/09/27 12:04:07;;;;;;;;;4.40;4.40;;;;;;;;5068506;28;8843;-85
2023/09/27 12:06:35;;;;;;;;;6.20;5.40;;;;;;;;5068026;28;8894;-82
2023/09/27 12:09:05;;;;;;;;;4.60;4.60;;;;;;;;5068677;28;9752;-82
2023/09/27 12:11:33;;;;;;;;;4.40;4.40;;;;;;;;5068451;28;8860;-78
2023/09/27 12:14:00;;;;;;;;;4.00;4.00;;;;;;;;5067870;28;8986;-79
2023/09/27 12:16:27;;;;;;;;;6.40;5.80;;;;;;;;5067245;28;8845;-82
2023/09/27 12:18:56;;;;;;;;;5.40;3.80;;;;;;;;5067051;28;8866;-79
2023/09/27 12:21:23;;;;;;;;;5.00;5.00;;;;;;;;5055300;28;8913;-71
2023/09/27 12:23:50;;;;;;;;;5.80;5.80;;;;;;;;5065819;28;8877;-71
2023/09/27 12:26:18;;;;;;;;;5.80;4.00;;;;;;;;5070260;28;8855;-82
2023/09/27 12:28:45;;;;;;;;;9.40;6.00;;;;;;;;5071922;28;8879;-76
2023/09/27 12:31:12;;;;;;;;;5.00;5.00;;;;;;;;5071588;28;8792;-74
2023/09/27 12:33:39;;;;;;;;;6.60;5.20;;;;;;;;5071862;28;9233;-70
2023/09/27 12:36:08;;;;;;;;;5.60;5.60;;;;;;;;5071515;28;8951;-85
2023/09/27 12:38:40;;;;;;;;;6.00;6.00;;;;;;;;5070628;28;8878;-74
2023/09/27 12:41:17;;;;;;;;;5.40;5.20;;;;;;;;5071463;28;8850;-71
2023/09/27 12:43:45;;;;;;;;;2.20;2.20;;;;;;;;5070717;28;8863;-71
2023/09/27 12:46:13;;;;;;;;;4.20;4.20;;;;;;;;5070682;28;8843;-77
2023/09/27 12:48:40;;;;;;;;;5.20;5.20;;;;;;;;5070589;28;8870;-73
2023/09/27 12:51:09;;;;;;;;;4.00;4.00;;;;;;;;5070519;28;9617;-78
2023/09/27 12:53:36;;;;;;;;;4.60;3.20;;;;;;;;5070291;28;8930;-71
2023/09/27 12:56:05;;;;;;;;;5.40;5.40;;;;;;;;5070188;28;8960;-71
2023/09/27 12:58:35;;;;;;;;;5.60;4.00;;;;;;;;5070357;28;8850;-71
2023/09/27 13:01:02;;;;;;;;;2.60;2.60;;;;;;;;5070029;28;8795;-70
2023/09/27 13:03:31;;;;;;;;;4.00;4.00;;;;;;;;5070644;28;8872;-70
2023/09/27 13:05:58;;;;;;;;;4.40;4.40;;;;;;;;5069573;28;8855;-72
2023/09/27 13:08:27;;;;;;;;;5.00;5.00;;;;;;;;5070454;28;8851;-71
2023/09/27 13:10:54;;;;;;;;;3.00;3.00;;;;;;;;5069873;28;8859;-71
2023/09/27 13:13:21;;;;;;;;;5.20;4.00;;;;;;;;5070595;28;9647;-69
2023/09/27 13:15:48;;;;;;;;;4.00;4.00;;;;;;;;5070821;28;8846;-70
2023/09/27 13:18:15;;;;;;;;;3.00;3.00;;;;;;;;5071048;28;9633;-72
2023/09/27 13:20:42;;;;;;;;;3.00;3.00;;;;;;;;5069576;28;8905;-76
2023/09/27 13:23:10;;;;;;;;;6.00;6.00;;;;;;;;5070664;28;9281;-70
2023/09/27 13:25:38;;;;;;;;;5.40;4.60;;;;;;;;5070061;28;8965;-71
2023/09/27 13:28:06;;;;;;;;;4.00;4.00;;;;;;;;5064294;28;8984;-74
2023/09/27 13:30:33;;;;;;;;;5.20;3.40;;;;;;;;5068064;28;8791;-71
2023/09/27 13:33:00;;;;;;;;;4.60;4.60;;;;;;;;5071642;28;8888;-71
2023/09/27 13:35:28;;;;;;;;;3.00;3.00;;;;;;;;5071773;28;8846;-73
2023/09/27 13:37:58;;;;;;;;;5.80;4.00;;;;;;;;5071171;28;8944;-70
2023/09/27 13:40:25;;;;;;;;;3.00;3.00;;;;;;;;5072749;28;8971;-71
2023/09/27 13:42:57;;;;;;;;;4.00;3.00;;;;;;;;5071308;28;8854;-76
2023/09/27 13:45:24;;;;;;;;;3.20;3.20;;;;;;;;5070621;28;8974;-82
2023/09/27 13:47:51;;;;;;;;;3.20;3.20;;;;;;;;5070203;28;8850;-72
2023/09/27 13:50:18;;;;;;;;;4.00;4.00;;;;;;;;5070602;28;8880;-74
2023/09/27 13:52:46;;;;;;;;;2.00;2.00;;;;;;;;5070779;28;8879;-72
2023/09/27 13:55:15;;;;;;;;;4.00;4.00;;;;;;;;5069049;28;8827;-75
2023/09/27 13:57:47;;;;;;;;;2.80;2.80;;;;;;;;5070127;28;8859;-83
2023/09/27 14:00:17;;;;;;;;;3.00;3.00;;;;;;;;5069096;28;8859;-86
2023/09/27 14:02:45;;;;;;;;;2.60;2.60;;;;;;;;5057945;28;8984;-76
2023/09/27 14:05:12;;;;;;;;;2.80;2.80;;;;;;;;5065831;28;8847;-77
2023/09/27 14:07:40;;;;;;;;;2.60;1.60;;;;;;;;5069568;28;8876;-73
2023/09/27 14:10:08;;;;;;;;;3.60;3.60;;;;;;;;5070366;28;8938;-74
2023/09/27 14:12:36;;;;;;;;;2.60;2.00;;;;;;;;5062888;28;8932;-80
2023/09/27 14:15:07;;;;;;;;;3.00;3.00;;;;;;;;5069949;28;8854;-73
2023/09/27 14:17:35;;;;;;;;;2.40;2.40;;;;;;;;5070150;28;8851;-71
2023/09/27 14:20:04;;;;;;;;;5.00;3.00;;;;;;;;5069071;28;8990;-74
2023/09/27 14:22:33;;;;;;;;;3.60;2.40;;;;;;;;5068576;28;8915;-75
2023/09/27 14:25:00;;;;;;;;;3.00;3.00;;;;;;;;5069005;28;8847;-71
2023/09/27 14:27:27;;;;;;;;;4.00;3.00;;;;;;;;5072281;28;8860;-74
2023/09/27 14:29:54;;;;;;;;;4.00;3.00;;;;;;;;5070016;28;8851;-75
2023/09/27 14:32:22;;;;;;;;;2.40;2.40;;;;;;;;5069145;28;8803;-76
2023/09/27 14:34:51;;;;;;;;;3.40;3.40;;;;;;;;5062201;28;8838;-79
2023/09/27 14:37:18;;;;;;;;;2.20;2.20;;;;;;;;5069155;28;8865;-72
2023/09/27 14:39:45;;;;;;;;;3.20;2.00;;;;;;;;5069183;28;8838;-78
2023/09/27 14:42:16;;;;;;;;;1.40;1.40;;;;;;;;5067326;28;8843;-74
2023/09/27 14:44:45;;;;;;;;;2.80;2.80;;;;;;;;5068996;28;8847;-73
2023/09/27 14:47:12;;;;;;;;;0.00;0.00;;;;;;;;5068687;28;8920;-74
2023/09/27 14:49:39;;;;;;;;;3.80;3.00;;;;;;;;5068421;28;8941;-74
2023/09/27 14:52:08;;;;;;;;;3.00;3.00;;;;;;;;5068055;28;9712;-74
2023/09/27 14:54:35;;;;;;;;;2.60;2.60;;;;;;;;5068616;28;8853;-71
2023/09/27 14:57:02;;;;;;;;;2.60;2.00;;;;;;;;5055915;28;8850;-72
2023/09/27 14:59:30;;;;;;;;;4.20;2.40;;;;;;;;5068125;28;8854;-71